Time;durP1;ratioP1;P1;durP2;ratioP2;P2;SDS_P1;SDS_P2;PMS_P1;PMS_P2;Temp;Humidity;BMP_temperature;BMP_pressure;BME280_temperature;BME280_humidity;BME280_pressure;Samples;Min_cycle;Max_cycle;Signal;HPM_P1;HPM_P2
2021/12/20 00:01:00;;;;;;;9.98;5.82;;;2.80;98.30;;;;;;4175211;28;20210;-79
2021/12/20 00:03:05;;;;;;;14.95;6.68;;;2.80;98.30;;;;;;4179578;28;20210;-79
2021/12/20 00:05:09;;;;;;;7.50;5.43;;;2.70;98.30;;;;;;4181988;28;20990;-80
2021/12/20 00:07:12;;;;;;;12.20;6.63;;;2.70;98.30;;;;;;4187606;28;20255;-79
2021/12/20 00:09:15;;;;;;;16.38;5.97;;;2.70;98.30;;;;;;4185458;28;20225;-79
2021/12/20 00:11:18;;;;;;;11.20;5.53;;;2.70;98.30;;;;;;4180053;28;20234;-79
2021/12/20 00:13:22;;;;;;;11.23;5.55;;;2.80;98.30;;;;;;4182106;28;20202;-79
2021/12/20 00:15:25;;;;;;;10.82;5.60;;;2.80;98.30;;;;;;4181824;28;20221;-79
2021/12/20 00:17:28;;;;;;;11.00;5.95;;;2.80;98.30;;;;;;4179420;28;20198;-80
2021/12/20 00:19:32;;;;;;;13.65;5.85;;;2.80;98.30;;;;;;4187678;28;20206;-79
2021/12/20 00:21:35;;;;;;;12.23;6.18;;;2.80;98.30;;;;;;4185798;28;20202;-80
2021/12/20 00:23:38;;;;;;;10.88;5.95;;;2.70;98.30;;;;;;4181191;28;20213;-79
2021/12/20 00:25:42;;;;;;;9.55;5.13;;;2.70;98.30;;;;;;4178918;28;20205;-80
2021/12/20 00:27:44;;;;;;;9.25;5.00;;;2.70;98.30;;;;;;4184643;28;20235;-80
2021/12/20 00:29:48;;;;;;;12.98;5.88;;;2.70;98.30;;;;;;4181827;28;20217;-79
2021/12/20 00:31:51;;;;;;;11.00;5.53;;;2.70;98.30;;;;;;4180866;28;20715;-79
2021/12/20 00:33:53;;;;;;;12.60;6.25;;;2.70;98.30;;;;;;4182233;28;20233;-80
2021/12/20 00:35:58;;;;;;;9.13;4.95;;;2.70;98.30;;;;;;4191213;28;20216;-80
2021/12/20 00:40:22;;;;;;;9.18;5.10;;;2.90;98.30;;;;;;4179850;28;20252;-79
2021/12/20 00:42:24;;;;;;;14.48;5.60;;;2.90;98.30;;;;;;4181959;28;20209;-79
2021/12/20 00:44:27;;;;;;;9.18;5.03;;;3.00;98.30;;;;;;4182787;28;20667;-79
2021/12/20 00:46:30;;;;;;;14.65;4.97;;;3.00;98.30;;;;;;4184168;28;20222;-79
2021/12/20 00:48:33;;;;;;;13.15;4.95;;;2.90;98.30;;;;;;4188148;28;20224;-79
2021/12/20 00:50:37;;;;;;;11.20;6.03;;;2.90;98.30;;;;;;4183975;28;20213;-79
2021/12/20 00:52:42;;;;;;;8.35;5.35;;;3.00;98.30;;;;;;4182278;28;20210;-79
2021/12/20 00:54:45;;;;;;;9.70;5.53;;;3.00;98.30;;;;;;4178766;28;20207;-80
2021/12/20 00:56:49;;;;;;;12.30;5.28;;;3.00;98.30;;;;;;4181781;28;20216;-79
2021/12/20 00:58:51;;;;;;;10.98;5.20;;;3.10;98.30;;;;;;4182286;28;20241;-80
2021/12/20 01:00:55;;;;;;;13.07;5.10;;;3.10;98.30;;;;;;4178560;28;20593;-79
2021/12/20 01:02:58;;;;;;;12.60;5.28;;;2.90;98.30;;;;;;4183823;28;20472;-79
2021/12/20 01:05:02;;;;;;;11.13;4.80;;;2.80;98.30;;;;;;4183211;28;20277;-80
2021/12/20 01:07:05;;;;;;;10.00;4.75;;;2.70;98.30;;;;;;4179589;28;20214;-80
2021/12/20 01:09:09;;;;;;;12.07;5.72;;;2.70;98.30;;;;;;4185166;28;20218;-79
2021/12/20 01:11:14;;;;;;;11.93;5.00;;;2.60;98.30;;;;;;4185831;28;20609;-80
2021/12/20 01:13:20;;;;;;;12.63;5.78;;;2.60;98.30;;;;;;4182631;28;20202;-80
2021/12/20 01:15:25;;;;;;;10.10;5.03;;;2.60;98.30;;;;;;4182493;28;20659;-79
2021/12/20 01:17:29;;;;;;;12.55;5.20;;;2.60;98.30;;;;;;4184771;28;20205;-80
2021/12/20 01:19:33;;;;;;;9.50;5.25;;;2.50;98.30;;;;;;4180921;28;20227;-79
2021/12/20 01:21:35;;;;;;;11.52;5.50;;;2.50;98.30;;;;;;4186153;28;20272;-79
2021/12/20 01:23:39;;;;;;;14.05;6.05;;;2.50;98.30;;;;;;4183802;28;20206;-79
2021/12/20 01:25:44;;;;;;;10.38;4.55;;;2.40;98.30;;;;;;4181637;28;20203;-79
2021/12/20 01:27:47;;;;;;;10.13;5.25;;;2.40;98.30;;;;;;4178705;28;20280;-79
2021/12/20 01:29:50;;;;;;;13.07;5.28;;;2.40;98.30;;;;;;4186597;28;20209;-80
2021/12/20 01:31:53;;;;;;;9.98;4.80;;;2.50;98.30;;;;;;4186668;28;20210;-80
2021/12/20 01:33:56;;;;;;;8.95;4.78;;;2.40;98.30;;;;;;4184220;28;20222;-79
2021/12/20 01:35:59;;;;;;;9.63;5.40;;;2.40;98.30;;;;;;4182997;28;20205;-79
2021/12/20 01:38:02;;;;;;;11.52;5.32;;;2.40;98.30;;;;;;4185209;28;20227;-79
2021/12/20 01:40:06;;;;;;;13.10;4.93;;;2.30;98.30;;;;;;4185634;28;20226;-80
2021/12/20 01:42:16;;;;;;;10.25;4.93;;;2.30;98.30;;;;;;4184280;28;20308;-79
2021/12/20 01:44:18;;;;;;;11.15;4.95;;;2.30;98.30;;;;;;4185788;28;20661;-79
2021/12/20 01:46:23;;;;;;;11.10;4.35;;;2.30;98.30;;;;;;4180856;28;20206;-79
2021/12/20 01:48:25;;;;;;;12.07;5.25;;;2.30;98.30;;;;;;4176256;28;20237;-79
2021/12/20 01:50:41;;;;;;;13.93;5.30;;;2.20;98.30;;;;;;4174870;28;20206;-79
2021/12/20 01:52:44;;;;;;;9.98;5.40;;;2.20;98.30;;;;;;4174061;28;20720;-79
2021/12/20 01:54:46;;;;;;;12.57;5.05;;;2.20;98.30;;;;;;4182812;28;20205;-79
2021/12/20 01:56:49;;;;;;;12.48;5.00;;;2.20;98.30;;;;;;4176586;28;20304;-80
2021/12/20 01:59:01;;;;;;;10.85;4.53;;;2.10;98.30;;;;;;4179241;28;20226;-79
2021/12/20 02:03:26;;;;;;;9.48;4.57;;;2.20;98.30;;;;;;4177147;28;20635;-79
2021/12/20 02:05:47;;;;;;;7.10;4.50;;;2.10;98.30;;;;;;4189371;28;20207;-79
2021/12/20 02:07:57;;;;;;;7.07;4.60;;;2.20;98.30;;;;;;4187773;28;20590;-80
2021/12/20 02:09:59;;;;;;;10.75;4.63;;;2.20;98.30;;;;;;4188136;28;20206;-79
2021/12/20 02:12:03;;;;;;;9.95;4.95;;;2.20;98.30;;;;;;4187914;28;20804;-79
2021/12/20 02:14:08;;;;;;;9.55;4.78;;;2.10;98.30;;;;;;4185348;28;20208;-80
2021/12/20 02:16:11;;;;;;;6.68;4.43;;;2.10;98.30;;;;;;4189068;28;20224;-79
2021/12/20 02:18:14;;;;;;;8.02;4.40;;;2.20;98.30;;;;;;4185802;28;20628;-79
2021/12/20 02:20:29;;;;;;;8.02;4.85;;;2.20;98.30;;;;;;4190955;28;20663;-79
2021/12/20 02:22:32;;;;;;;12.93;4.75;;;2.20;98.30;;;;;;4183328;28;20206;-79
2021/12/20 02:24:35;;;;;;;7.22;4.97;;;2.20;98.30;;;;;;4187625;28;20212;-79
2021/12/20 02:26:38;;;;;;;12.32;4.75;;;2.10;98.30;;;;;;4187915;28;20266;-79
2021/12/20 02:28:44;;;;;;;8.48;4.65;;;2.10;98.30;;;;;;4181319;28;20268;-79
2021/12/20 02:36:52;;;;;;;14.23;5.25;;;2.10;98.30;;;;;;4182908;28;20260;-79
2021/12/20 02:37:59;;;;;;;8.05;4.85;;;2.10;98.30;;;;;;4192110;28;20230;-79
2021/12/20 02:40:02;;;;;;;7.20;4.50;;;2.10;98.30;;;;;;4185030;28;20231;-79
2021/12/20 02:42:05;;;;;;;15.55;5.30;;;2.10;98.30;;;;;;4183846;28;20229;-79
2021/12/20 02:44:16;;;;;;;7.85;4.20;;;2.10;98.30;;;;;;4188105;28;20236;-79
2021/12/20 02:46:30;;;;;;;11.20;4.70;;;2.10;98.30;;;;;;4178998;28;20256;-79
2021/12/20 02:48:33;;;;;;;11.90;4.45;;;2.10;98.30;;;;;;4179477;28;20232;-80
2021/12/20 02:50:37;;;;;;;8.65;4.70;;;2.20;98.30;;;;;;4182195;28;20354;-79
2021/12/20 02:52:41;;;;;;;10.07;4.50;;;2.10;98.30;;;;;;4173680;28;20210;-79
2021/12/20 02:54:44;;;;;;;10.82;5.25;;;2.20;98.30;;;;;;4175842;28;20205;-80
2021/12/20 02:56:47;;;;;;;11.23;4.93;;;2.20;98.30;;;;;;4187739;28;20210;-79
2021/12/20 02:58:50;;;;;;;11.88;4.70;;;2.20;98.30;;;;;;4184776;28;20226;-80
2021/12/20 03:00:53;;;;;;;9.75;4.82;;;2.20;98.30;;;;;;4181628;28;20221;-79
2021/12/20 03:02:56;;;;;;;7.95;4.20;;;2.10;98.30;;;;;;4185254;28;20207;-80
2021/12/20 03:04:59;;;;;;;7.32;3.95;;;2.10;98.30;;;;;;4183953;28;20301;-80
2021/12/20 03:07:07;;;;;;;12.00;4.82;;;2.10;98.30;;;;;;4184066;28;20250;-79
2021/12/20 03:09:14;;;;;;;9.45;4.35;;;2.00;98.30;;;;;;4186063;28;20241;-79
2021/12/20 03:11:17;;;;;;;8.40;3.83;;;2.10;98.30;;;;;;4180845;28;20211;-79
2021/12/20 03:13:22;;;;;;;7.85;4.40;;;2.10;98.30;;;;;;4186961;28;20241;-79
2021/12/20 03:15:27;;;;;;;10.75;4.45;;;2.10;98.30;;;;;;4184471;28;20205;-79
2021/12/20 03:17:30;;;;;;;8.35;4.30;;;2.10;98.30;;;;;;4190526;28;20209;-79
2021/12/20 03:19:33;;;;;;;10.55;4.55;;;2.00;98.30;;;;;;4190192;28;20225;-80
2021/12/20 03:21:36;;;;;;;10.40;4.10;;;2.00;98.30;;;;;;4179251;28;21050;-79
2021/12/20 03:23:41;;;;;;;11.95;4.60;;;2.00;98.30;;;;;;4187698;28;20205;-79
2021/12/20 03:25:43;;;;;;;9.25;4.38;;;2.00;98.30;;;;;;4190853;28;20723;-79
2021/12/20 03:27:46;;;;;;;9.85;4.88;;;2.00;98.30;;;;;;4185841;28;20595;-80
2021/12/20 03:29:49;;;;;;;7.18;4.43;;;1.90;98.30;;;;;;4184951;28;20198;-79
2021/12/20 03:31:52;;;;;;;8.23;4.10;;;1.90;98.30;;;;;;4182915;28;20203;-79
2021/12/20 03:33:56;;;;;;;8.77;4.85;;;1.90;98.30;;;;;;4186841;28;20216;-79
2021/12/20 03:35:59;;;;;;;8.65;4.93;;;1.80;98.30;;;;;;4189482;28;20252;-79
2021/12/20 03:38:02;;;;;;;8.98;4.70;;;1.90;98.30;;;;;;4185980;28;20237;-79
2021/12/20 03:40:10;;;;;;;10.15;4.40;;;1.80;98.30;;;;;;4186879;28;20295;-80
2021/12/20 03:42:13;;;;;;;7.13;4.55;;;1.80;98.30;;;;;;4182033;28;20212;-80
2021/12/20 03:44:16;;;;;;;6.88;4.38;;;1.80;98.30;;;;;;4181980;28;20207;-80
2021/12/20 03:46:19;;;;;;;9.98;4.57;;;1.90;98.30;;;;;;4193335;28;20206;-80
2021/12/20 03:48:22;;;;;;;12.13;4.55;;;1.90;98.30;;;;;;4181989;28;20229;-79
2021/12/20 03:50:27;;;;;;;8.50;4.88;;;2.00;98.30;;;;;;4177048;28;20260;-80
2021/12/20 03:52:30;;;;;;;6.93;4.05;;;2.00;98.30;;;;;;4185433;28;20202;-80
2021/12/20 03:54:32;;;;;;;11.05;5.13;;;2.00;98.30;;;;;;4177631;28;20670;-80
2021/12/20 03:56:37;;;;;;;14.38;4.63;;;1.90;98.30;;;;;;4179598;28;20217;-80
2021/12/20 03:58:40;;;;;;;9.13;3.80;;;1.90;98.30;;;;;;4182504;28;20740;-80
2021/12/20 04:00:44;;;;;;;7.25;4.00;;;1.80;98.30;;;;;;4181384;28;20248;-79
2021/12/20 04:02:47;;;;;;;6.32;4.00;;;1.80;98.30;;;;;;4172306;28;20221;-80
2021/12/20 04:04:50;;;;;;;10.48;4.47;;;1.80;98.30;;;;;;4176476;28;20214;-80
2021/12/20 04:06:53;;;;;;;8.23;4.32;;;1.80;98.30;;;;;;4188947;28;20236;-80
2021/12/20 04:08:56;;;;;;;9.10;4.47;;;1.80;98.30;;;;;;4183205;28;20264;-80
2021/12/20 04:11:00;;;;;;;11.55;4.20;;;1.70;98.30;;;;;;4188502;28;20202;-80
2021/12/20 04:13:04;;;;;;;8.98;4.50;;;1.70;98.30;;;;;;4182678;28;20210;-80
2021/12/20 04:15:07;;;;;;;7.30;3.92;;;1.70;98.30;;;;;;4186753;28;20209;-79
2021/12/20 04:17:10;;;;;;;11.18;4.32;;;1.70;98.30;;;;;;4185252;28;20653;-79
2021/12/20 04:19:13;;;;;;;9.13;4.50;;;1.70;98.30;;;;;;4184475;28;20233;-79
2021/12/20 04:21:16;;;;;;;11.43;3.80;;;1.70;98.30;;;;;;4177068;28;20703;-79
2021/12/20 04:23:19;;;;;;;7.53;3.75;;;1.70;98.30;;;;;;4186303;28;20205;-79
2021/12/20 04:25:22;;;;;;;6.95;4.40;;;1.70;98.30;;;;;;4186136;28;20212;-80
2021/12/20 04:27:25;;;;;;;8.75;4.47;;;1.70;98.30;;;;;;4188514;28;20263;-80
2021/12/20 04:29:29;;;;;;;8.60;4.25;;;1.70;98.30;;;;;;4185921;28;20260;-80
2021/12/20 04:31:35;;;;;;;8.55;4.65;;;1.80;98.30;;;;;;4181538;28;20201;-79
2021/12/20 04:33:38;;;;;;;6.68;4.10;;;1.90;98.30;;;;;;4187014;28;20210;-80
2021/12/20 04:35:40;;;;;;;7.57;4.22;;;2.00;98.30;;;;;;4178562;28;20298;-80
2021/12/20 04:37:45;;;;;;;6.45;4.18;;;2.00;98.30;;;;;;4189914;28;20716;-80
2021/12/20 04:39:50;;;;;;;8.20;4.20;;;2.00;98.30;;;;;;4188515;28;20201;-80
2021/12/20 04:41:53;;;;;;;8.55;4.30;;;1.90;98.30;;;;;;4189030;28;20229;-79
2021/12/20 04:43:56;;;;;;;8.07;3.80;;;1.90;98.30;;;;;;4182205;28;20211;-79
2021/12/20 04:46:00;;;;;;;8.25;4.10;;;1.80;98.30;;;;;;4181114;28;20622;-80
2021/12/20 04:48:03;;;;;;;9.82;4.38;;;1.70;98.30;;;;;;4183091;28;20230;-80
2021/12/20 04:50:10;;;;;;;9.43;4.45;;;1.70;98.30;;;;;;4190063;28;20272;-79
2021/12/20 04:52:13;;;;;;;11.02;4.30;;;1.70;98.30;;;;;;4185784;28;20727;-80
2021/12/20 04:58:50;;;;;;;6.93;3.92;;;1.60;98.30;;;;;;4570776;23;20251;-77
2021/12/20 05:00:53;;;;;;;9.05;4.30;;;1.60;98.30;;;;;;4133445;28;20224;-78
2021/12/20 05:02:58;;;;;;;7.82;4.15;;;1.60;98.30;;;;;;4133209;28;20209;-77
2021/12/20 05:05:01;;;;;;;10.65;4.10;;;1.60;98.30;;;;;;4132605;28;20232;-78
2021/12/20 05:07:04;;;;;;;6.88;3.90;;;1.60;98.30;;;;;;4132253;28;20275;-77
2021/12/20 05:09:07;;;;;;;7.75;4.03;;;1.60;98.30;;;;;;4131012;28;20212;-77
2021/12/20 05:11:10;;;;;;;8.98;4.55;;;1.50;98.30;;;;;;4131173;28;20203;-77
2021/12/20 05:13:13;;;;;;;9.93;4.20;;;1.50;98.30;;;;;;4131618;28;20208;-77
2021/12/20 05:15:20;;;;;;;10.32;4.90;;;1.40;98.30;;;;;;4131444;28;20227;-77
2021/12/20 05:17:23;;;;;;;6.95;4.00;;;1.40;98.30;;;;;;4134647;28;20797;-77
2021/12/20 05:19:28;;;;;;;5.63;3.65;;;1.50;98.30;;;;;;4137951;28;20207;-77
2021/12/20 05:21:30;;;;;;;14.38;4.28;;;1.50;98.30;;;;;;4138162;28;20228;-77
2021/12/20 05:23:33;;;;;;;7.80;4.03;;;1.50;98.30;;;;;;4137542;28;20208;-77
2021/12/20 05:25:37;;;;;;;10.07;4.75;;;1.50;98.30;;;;;;4136678;28;20208;-77
2021/12/20 05:27:40;;;;;;;8.55;4.05;;;1.50;98.30;;;;;;4142165;28;20214;-77
2021/12/20 05:29:43;;;;;;;11.65;3.85;;;1.50;98.30;;;;;;4137838;28;20216;-77
2021/12/20 05:31:46;;;;;;;11.25;4.00;;;1.50;98.30;;;;;;4138297;28;20208;-77
2021/12/20 05:33:48;;;;;;;8.75;4.40;;;1.50;98.30;;;;;;4132419;28;20219;-77
2021/12/20 05:35:53;;;;;;;10.57;4.97;;;1.50;98.30;;;;;;4131194;28;20719;-77
2021/12/20 05:38:16;;;;;;;9.05;3.70;;;1.50;98.30;;;;;;4126869;28;20212;-77
2021/12/20 05:40:20;;;;;;;7.80;4.18;;;1.50;98.30;;;;;;4134228;28;20266;-77
2021/12/20 05:42:23;;;;;;;10.60;4.30;;;1.50;98.30;;;;;;4130991;28;20714;-77
2021/12/20 05:44:26;;;;;;;7.28;4.13;;;1.40;98.30;;;;;;4131961;28;20228;-77
2021/12/20 05:46:29;;;;;;;10.38;4.65;;;1.40;98.30;;;;;;4131880;28;20216;-77
2021/12/20 05:48:32;;;;;;;7.15;4.20;;;1.40;98.30;;;;;;4131107;28;20220;-77
2021/12/20 05:50:35;;;;;;;12.25;4.53;;;1.40;98.30;;;;;;4132781;28;20204;-77
2021/12/20 05:52:39;;;;;;;8.15;4.28;;;1.50;98.30;;;;;;4132112;28;20230;-77
2021/12/20 05:54:42;;;;;;;9.15;5.50;;;1.40;98.30;;;;;;4132547;28;20643;-77
2021/12/20 05:56:45;;;;;;;6.80;4.30;;;1.40;98.30;;;;;;4132768;28;20220;-77
2021/12/20 05:58:48;;;;;;;10.23;5.03;;;1.40;98.30;;;;;;4131904;28;20294;-77
2021/12/20 06:00:51;;;;;;;11.18;4.82;;;1.40;98.30;;;;;;4132210;28;20607;-77
2021/12/20 06:02:54;;;;;;;11.07;4.65;;;1.40;98.30;;;;;;4131835;28;20292;-77
2021/12/20 06:04:57;;;;;;;9.90;4.60;;;1.40;98.30;;;;;;4132825;28;20262;-77
2021/12/20 06:07:00;;;;;;;10.25;4.57;;;1.40;98.30;;;;;;4128017;28;20223;-77
2021/12/20 06:09:04;;;;;;;8.68;4.20;;;1.40;98.30;;;;;;4134151;28;20212;-77
2021/12/20 06:11:07;;;;;;;8.27;4.97;;;1.40;98.30;;;;;;4130526;28;20279;-77
2021/12/20 06:13:10;;;;;;;12.18;5.40;;;1.40;98.30;;;;;;4134011;28;20237;-77
2021/12/20 06:15:13;;;;;;;9.68;6.07;;;1.40;98.30;;;;;;4136304;28;20232;-77
2021/12/20 06:17:16;;;;;;;8.23;5.63;;;1.40;98.30;;;;;;4135865;28;20232;-77
2021/12/20 06:19:19;;;;;;;8.73;5.43;;;1.40;98.30;;;;;;4134035;28;20603;-77
2021/12/20 06:21:23;;;;;;;8.27;5.00;;;1.40;98.30;;;;;;4134174;28;20735;-77
2021/12/20 06:23:26;;;;;;;10.95;5.50;;;1.40;98.30;;;;;;4131819;28;20219;-77
2021/12/20 06:25:30;;;;;;;8.82;5.32;;;1.30;98.30;;;;;;4134656;28;20208;-77
2021/12/20 06:27:33;;;;;;;8.93;5.60;;;1.30;98.30;;;;;;4133565;28;20263;-77
2021/12/20 06:29:36;;;;;;;12.32;5.68;;;1.30;98.30;;;;;;4132741;28;20211;-77
2021/12/20 06:31:39;;;;;;;9.50;4.75;;;1.30;98.30;;;;;;4133694;28;20204;-77
2021/12/20 06:33:41;;;;;;;9.43;5.15;;;1.20;98.30;;;;;;4132664;28;20262;-77
2021/12/20 06:35:45;;;;;;;11.82;5.18;;;1.10;98.30;;;;;;4134803;28;20220;-77
2021/12/20 06:37:59;;;;;;;13.30;7.00;;;1.10;98.30;;;;;;4134752;28;20267;-77
2021/12/20 06:40:02;;;;;;;10.10;5.43;;;1.10;98.30;;;;;;4134455;28;20215;-77
2021/12/20 06:42:07;;;;;;;8.98;5.40;;;1.20;98.30;;;;;;4127638;28;20703;-77
2021/12/20 06:44:10;;;;;;;5.03;4.35;;;1.20;98.30;;;;;;4130145;28;20240;-77
2021/12/20 06:46:14;;;;;;;8.20;5.45;;;1.20;98.30;;;;;;4134149;28;20216;-78
2021/12/20 06:48:17;;;;;;;10.13;4.75;;;1.20;98.30;;;;;;4132878;28;20208;-78
2021/12/20 06:50:20;;;;;;;10.98;5.05;;;1.20;98.30;;;;;;4133924;28;20656;-78
2021/12/20 06:52:23;;;;;;;8.48;4.53;;;1.20;98.30;;;;;;4132318;28;20975;-78
2021/12/20 06:54:26;;;;;;;10.88;4.90;;;1.20;98.30;;;;;;4131462;28;20227;-78
2021/12/20 06:56:29;;;;;;;9.48;4.97;;;1.20;98.30;;;;;;4133559;28;20209;-78
2021/12/20 06:58:33;;;;;;;7.35;4.90;;;1.30;98.30;;;;;;4133369;28;20212;-78
2021/12/20 07:00:37;;;;;;;5.60;4.53;;;1.30;98.30;;;;;;4135669;28;20659;-77
2021/12/20 07:02:40;;;;;;;9.80;5.18;;;1.20;98.30;;;;;;4130513;28;20273;-78
2021/12/20 07:04:48;;;;;;;6.97;4.25;;;1.20;98.30;;;;;;4128369;28;20260;-78
2021/12/20 07:06:52;;;;;;;6.75;4.65;;;1.20;98.30;;;;;;4132565;28;20266;-78
2021/12/20 07:08:55;;;;;;;8.95;4.55;;;1.20;98.30;;;;;;4131955;28;20212;-78
2021/12/20 07:10:58;;;;;;;7.43;4.38;;;1.20;98.30;;;;;;4130805;28;20212;-78
2021/12/20 07:13:01;;;;;;;10.60;4.88;;;1.20;98.30;;;;;;4130328;28;20219;-78
2021/12/20 07:15:10;;;;;;;9.00;4.55;;;1.20;98.30;;;;;;4131490;28;20263;-78
2021/12/20 07:17:12;;;;;;;9.10;5.30;;;1.20;98.30;;;;;;4130267;28;20200;-78
2021/12/20 07:19:16;;;;;;;9.02;4.75;;;1.20;98.30;;;;;;4132648;28;21485;-78
2021/12/20 07:21:18;;;;;;;7.25;4.38;;;1.20;98.30;;;;;;4126695;28;20218;-78
2021/12/20 07:23:22;;;;;;;12.05;4.68;;;1.30;98.30;;;;;;4132479;28;20230;-79
2021/12/20 07:25:25;;;;;;;7.88;4.90;;;1.40;98.30;;;;;;4130044;28;20471;-78
2021/12/20 07:27:30;;;;;;;12.25;4.95;;;1.60;98.30;;;;;;4131712;28;20787;-78
2021/12/20 07:29:33;;;;;;;12.55;6.40;;;1.60;98.30;;;;;;4131278;28;20223;-77
2021/12/20 07:31:37;;;;;;;10.75;5.88;;;1.60;98.30;;;;;;4130689;28;20626;-78
2021/12/20 07:33:42;;;;;;;9.70;5.63;;;1.50;98.30;;;;;;4131796;28;20200;-78
2021/12/20 07:35:46;;;;;;;10.25;5.60;;;1.50;98.30;;;;;;4133397;28;20213;-78
2021/12/20 07:37:49;;;;;;;7.60;5.75;;;1.50;98.30;;;;;;4134376;28;20278;-79
2021/12/20 07:39:52;;;;;;;11.63;5.95;;;1.40;98.30;;;;;;4132435;28;20615;-79
2021/12/20 07:41:55;;;;;;;12.93;6.30;;;1.30;98.30;;;;;;4133394;28;20208;-79
2021/12/20 07:43:58;;;;;;;10.65;6.10;;;1.30;98.30;;;;;;4134520;28;20232;-79
2021/12/20 07:46:01;;;;;;;8.23;5.63;;;1.40;98.30;;;;;;4133362;28;20262;-78
2021/12/20 07:48:06;;;;;;;12.20;6.03;;;1.30;98.30;;;;;;4128674;28;20212;-79
2021/12/20 07:50:09;;;;;;;11.35;4.88;;;1.40;98.30;;;;;;4132865;28;20212;-78
2021/12/20 07:52:12;;;;;;;9.65;6.00;;;1.40;98.30;;;;;;4129492;28;20220;-79
2021/12/20 07:54:15;;;;;;;8.45;5.30;;;1.40;98.30;;;;;;4133184;28;20236;-78
2021/12/20 07:56:18;;;;;;;7.65;5.20;;;1.50;98.30;;;;;;4134450;28;20215;-77
2021/12/20 07:58:21;;;;;;;6.95;4.35;;;1.50;98.30;;;;;;4132848;28;20216;-77
2021/12/20 08:00:24;;;;;;;9.13;4.50;;;1.60;98.30;;;;;;4128789;28;20214;-78
2021/12/20 08:02:27;;;;;;;6.53;4.50;;;1.70;98.30;;;;;;4131310;28;20208;-78
2021/12/20 08:04:32;;;;;;;7.68;4.60;;;1.70;98.30;;;;;;4134169;28;20319;-78
2021/12/20 08:06:35;;;;;;;6.43;4.70;;;1.90;98.30;;;;;;4134732;28;20238;-78
2021/12/20 08:08:40;;;;;;;9.02;4.38;;;1.90;98.30;;;;;;4133419;28;20219;-78
2021/12/20 08:10:43;;;;;;;8.00;5.05;;;2.00;98.30;;;;;;4134029;28;20238;-78
2021/12/20 08:12:46;;;;;;;10.70;5.28;;;2.10;98.30;;;;;;4135218;28;20243;-78
2021/12/20 08:14:49;;;;;;;8.48;4.70;;;2.20;98.30;;;;;;4131985;28;20363;-78
2021/12/20 08:16:52;;;;;;;11.52;4.50;;;2.40;98.30;;;;;;4132607;28;21058;-78
2021/12/20 08:18:55;;;;;;;8.52;4.97;;;2.50;98.30;;;;;;4131858;28;20212;-78
2021/12/20 08:20:59;;;;;;;8.65;4.53;;;2.50;98.30;;;;;;4135081;28;20227;-78
2021/12/20 08:23:03;;;;;;;7.07;4.68;;;2.60;98.30;;;;;;4135530;28;20216;-78
2021/12/20 08:25:07;;;;;;;13.33;4.43;;;2.80;98.30;;;;;;4134661;28;20235;-78
2021/12/20 08:27:10;;;;;;;8.63;4.45;;;2.80;98.30;;;;;;4124010;28;20471;-78
2021/12/20 08:29:13;;;;;;;8.93;4.73;;;2.90;98.30;;;;;;4133879;28;20219;-78
2021/12/20 08:31:16;;;;;;;8.53;4.87;;;3.00;98.30;;;;;;4133809;28;20567;-78
2021/12/20 08:33:19;;;;;;;8.23;5.23;;;3.10;98.30;;;;;;4131145;28;20901;-78
2021/12/20 08:35:22;;;;;;;6.53;4.60;;;3.20;98.30;;;;;;4133116;28;20526;-78
2021/12/20 08:37:27;;;;;;;8.50;4.97;;;3.30;98.30;;;;;;4136937;28;20507;-78
2021/12/20 08:39:31;;;;;;;8.03;6.00;;;3.40;98.30;;;;;;4136733;28;20853;-78
2021/12/20 08:41:34;;;;;;;10.93;5.77;;;3.50;98.30;;;;;;4132592;28;20482;-78
2021/12/20 08:43:36;;;;;;;8.73;5.23;;;3.60;98.30;;;;;;4133710;28;21053;-79
2021/12/20 08:45:39;;;;;;;8.00;5.93;;;3.70;98.30;;;;;;4134069;28;20482;-77
2021/12/20 08:47:42;;;;;;;9.43;6.03;;;3.80;98.30;;;;;;4133194;28;20479;-77
2021/12/20 08:49:46;;;;;;;10.03;5.83;;;3.90;98.30;;;;;;4132053;28;20838;-78
2021/12/20 08:51:49;;;;;;;9.07;5.27;;;4.00;98.30;;;;;;4129782;28;20479;-77
2021/12/20 08:53:53;;;;;;;7.67;5.53;;;4.10;98.30;;;;;;4130921;28;20491;-77
2021/12/20 08:55:57;;;;;;;11.77;5.07;;;4.10;98.30;;;;;;4126306;28;20440;-77
2021/12/20 08:58:00;;;;;;;9.90;5.43;;;4.10;98.30;;;;;;4129209;28;20480;-77
2021/12/20 09:00:08;;;;;;;15.60;9.90;;;4.00;98.30;;;;;;4129845;28;20435;-77
2021/12/20 09:02:12;;;;;;;7.30;5.10;;;4.00;98.30;;;;;;4131481;28;20448;-78
2021/12/20 09:04:16;;;;;;;9.70;4.67;;;3.70;98.30;;;;;;4131664;28;20493;-78
2021/12/20 09:06:22;;;;;;;8.77;4.60;;;3.90;98.30;;;;;;4132994;28;20995;-78
2021/12/20 09:08:25;;;;;;;8.53;4.90;;;4.10;98.30;;;;;;4134487;28;20476;-78
2021/12/20 09:10:31;;;;;;;9.80;5.30;;;4.30;98.30;;;;;;4132242;28;20474;-78
2021/12/20 09:12:34;;;;;;;11.50;5.00;;;4.50;98.30;;;;;;4131434;28;20467;-78
2021/12/20 09:14:37;;;;;;;6.87;4.37;;;4.70;98.30;;;;;;4132270;28;20513;-78
2021/12/20 09:16:41;;;;;;;10.40;4.10;;;4.90;98.30;;;;;;4132678;28;20457;-78
2021/12/20 09:18:44;;;;;;;10.20;4.37;;;5.10;98.30;;;;;;4132282;28;20472;-78
2021/12/20 09:20:47;;;;;;;6.20;3.90;;;5.10;98.30;;;;;;4133054;28;20499;-78
2021/12/20 09:22:52;;;;;;;8.93;4.70;;;5.30;98.30;;;;;;4129411;28;20455;-78
2021/12/20 09:24:56;;;;;;;13.70;4.80;;;5.30;98.30;;;;;;4130411;28;20473;-78
2021/12/20 09:27:00;;;;;;;10.73;4.60;;;5.30;98.30;;;;;;4140136;28;20458;-78
2021/12/20 09:29:03;;;;;;;7.90;4.40;;;5.50;98.30;;;;;;4133192;28;20467;-78
2021/12/20 09:31:08;;;;;;;9.10;5.27;;;5.50;98.30;;;;;;4132590;28;20473;-78
2021/12/20 09:33:12;;;;;;;8.63;4.67;;;5.60;98.30;;;;;;4132804;28;20438;-78
2021/12/20 09:35:16;;;;;;;10.03;4.87;;;5.70;98.30;;;;;;4133153;28;20470;-78
2021/12/20 09:37:19;;;;;;;6.33;4.23;;;5.80;98.30;;;;;;4132334;28;20486;-78
2021/12/20 09:39:22;;;;;;;7.40;4.87;;;5.90;98.30;;;;;;4133295;28;20438;-77
2021/12/20 09:43:52;;;;;;;8.27;4.50;;;6.00;98.30;;;;;;4130732;28;20457;-78
2021/12/20 09:45:57;;;;;;;7.17;4.60;;;6.10;98.30;;;;;;4139003;28;20503;-77
2021/12/20 09:48:01;;;;;;;8.30;5.03;;;6.30;98.30;;;;;;4141235;28;20763;-77
2021/12/20 09:50:06;;;;;;;8.70;4.70;;;6.40;98.30;;;;;;4136683;28;20534;-77
2021/12/20 09:52:09;;;;;;;12.20;4.57;;;6.50;98.30;;;;;;4135281;28;20463;-77
2021/12/20 09:54:12;;;;;;;5.67;4.20;;;6.50;98.30;;;;;;4137202;28;20552;-77
2021/12/20 09:56:15;;;;;;;7.87;4.20;;;6.50;98.30;;;;;;4138629;28;20475;-77
2021/12/20 09:58:22;;;;;;;9.77;4.97;;;6.60;98.30;;;;;;4135586;28;20474;-77
2021/12/20 10:00:27;;;;;;;7.33;4.53;;;6.70;98.30;;;;;;4129786;28;20467;-78
2021/12/20 10:02:30;;;;;;;7.87;4.23;;;6.90;98.30;;;;;;4129001;28;20475;-78
2021/12/20 10:04:33;;;;;;;7.70;4.20;;;7.00;98.30;;;;;;4131870;28;20513;-78
2021/12/20 10:06:36;;;;;;;7.10;4.30;;;7.20;98.30;;;;;;4131676;28;20514;-77
2021/12/20 10:08:49;;;;;;;4.40;3.47;;;7.20;98.30;;;;;;4131306;28;20477;-78
2021/12/20 10:10:52;;;;;;;6.00;4.13;;;7.20;98.30;;;;;;4130595;28;20473;-78
2021/12/20 10:12:54;;;;;;;7.30;5.23;;;7.30;98.30;;;;;;4131826;28;20480;-77
2021/12/20 10:15:02;;;;;;;9.67;4.13;;;7.50;98.30;;;;;;4129595;28;20494;-78
2021/12/20 10:17:06;;;;;;;6.17;4.33;;;7.70;98.30;;;;;;4128290;28;20470;-78
2021/12/20 10:19:28;;;;;;;7.10;4.20;;;7.80;98.30;;;;;;4133021;28;20475;-78
2021/12/20 10:21:37;;;;;;;5.27;3.40;;;8.00;98.30;;;;;;4130885;28;20478;-77
2021/12/20 10:23:42;;;;;;;6.70;3.77;;;8.10;98.30;;;;;;4131113;28;20480;-78
2021/12/20 10:25:50;;;;;;;5.47;3.70;;;8.30;98.30;;;;;;4134251;28;20462;-78
2021/12/20 10:27:55;;;;;;;6.43;3.60;;;8.40;98.30;;;;;;4135872;28;20528;-78
2021/12/20 10:30:01;;;;;;;7.77;4.37;;;8.40;98.30;;;;;;4136199;28;20473;-78
2021/12/20 10:32:06;;;;;;;4.70;3.70;;;8.50;98.10;;;;;;4134670;28;20467;-78
2021/12/20 10:34:09;;;;;;;5.40;3.93;;;8.70;97.80;;;;;;4132173;28;20742;-78
2021/12/20 10:36:14;;;;;;;4.83;3.90;;;8.90;97.50;;;;;;4135857;28;20525;-78
2021/12/20 10:38:29;;;;;;;4.93;3.80;;;9.00;96.80;;;;;;4139171;28;20463;-78
2021/12/20 10:40:34;;;;;;;6.60;4.30;;;9.00;96.70;;;;;;4129299;28;20462;-77
2021/12/20 10:42:42;;;;;;;6.87;3.93;;;9.20;96.50;;;;;;4130253;28;20469;-77
2021/12/20 10:44:45;;;;;;;7.37;3.47;;;9.50;95.70;;;;;;4129051;28;20501;-77
2021/12/20 10:46:50;;;;;;;8.90;4.10;;;9.50;94.80;;;;;;4131952;28;21017;-77
2021/12/20 10:49:02;;;;;;;8.63;4.67;;;9.50;95.00;;;;;;4131265;28;20472;-77
2021/12/20 10:51:06;;;;;;;6.60;3.83;;;9.60;94.80;;;;;;4128242;28;20471;-77
2021/12/20 10:53:15;;;;;;;6.87;4.10;;;9.90;94.40;;;;;;4130383;28;20512;-77
2021/12/20 10:55:37;;;;;;;8.17;4.90;;;10.10;94.10;;;;;;4130776;28;20496;-77
2021/12/20 10:57:40;;;;;;;5.27;3.53;;;10.50;93.20;;;;;;4131234;28;20570;-77
2021/12/20 11:00:15;;;;;;;6.67;3.43;;;10.80;92.20;;;;;;4131295;28;20594;-77
2021/12/20 11:04:58;;;;;;;7.67;4.03;;;11.10;90.70;;;;;;4095178;29;20497;-77
2021/12/20 11:09:23;;;;;;;5.97;4.30;;;11.50;89.70;;;;;;4130731;28;20478;-77
2021/12/20 11:11:26;;;;;;;5.67;3.30;;;11.50;89.00;;;;;;4129420;28;20481;-77
2021/12/20 11:13:37;;;;;;;6.93;3.67;;;11.40;89.60;;;;;;4130229;28;20530;-77